Time;durP1;ratioP1;P1;durP2;ratioP2;P2;SDS_P1;SDS_P2;PMS_P1;PMS_P2;Temp;Humidity;BMP_temperature;BMP_pressure;BME280_temperature;BME280_humidity;BME280_pressure;Samples;Min_cycle;Max_cycle;Signal;HPM_P1;HPM_P2
2022/03/04 00:01:15;;;;;;;0.60;0.60;;;2.70;99.90;;;;;;4990918;28;20423;-74
2022/03/04 00:03:41;;;;;;;0.90;0.80;;;2.80;99.90;;;;;;4972660;28;20536;-73
2022/03/04 00:06:07;;;;;;;0.40;0.40;;;2.70;99.90;;;;;;4990268;28;20390;-73
2022/03/04 00:08:33;;;;;;;0.60;0.60;;;2.70;99.90;;;;;;4990019;28;20494;-73
2022/03/04 00:10:58;;;;;;;1.10;0.80;;;2.60;99.90;;;;;;4969163;28;20430;-73
2022/03/04 00:13:24;;;;;;;0.40;0.40;;;2.60;99.90;;;;;;4971531;28;20849;-73
2022/03/04 00:15:50;;;;;;;0.60;0.60;;;2.50;99.90;;;;;;4970451;28;20475;-72
2022/03/04 00:18:16;;;;;;;0.40;0.40;;;2.40;99.90;;;;;;4971443;28;20468;-72
2022/03/04 00:20:43;;;;;;;1.00;0.90;;;2.30;99.90;;;;;;4970383;28;20462;-72
2022/03/04 00:23:08;;;;;;;0.90;0.90;;;2.20;99.90;;;;;;4971122;28;20861;-73
2022/03/04 00:25:34;;;;;;;0.40;0.20;;;2.20;99.90;;;;;;4971195;28;20419;-73
2022/03/04 00:28:00;;;;;;;0.60;0.60;;;2.10;99.90;;;;;;4970731;28;20380;-74
2022/03/04 00:30:26;;;;;;;0.70;0.70;;;2.20;99.90;;;;;;4971072;28;20478;-73
2022/03/04 00:32:51;;;;;;;0.40;0.20;;;2.10;99.90;;;;;;4970645;28;20398;-74
2022/03/04 00:35:17;;;;;;;0.40;0.30;;;2.10;99.90;;;;;;4969305;28;20403;-73
2022/03/04 00:37:44;;;;;;;0.40;0.30;;;2.00;99.90;;;;;;4973175;28;20392;-73
2022/03/04 00:40:10;;;;;;;0.60;0.60;;;2.10;99.90;;;;;;4974388;28;20604;-73
2022/03/04 00:42:36;;;;;;;1.00;1.00;;;2.20;99.90;;;;;;4973634;28;20392;-73
2022/03/04 00:45:03;;;;;;;0.40;0.40;;;2.20;99.90;;;;;;4974225;28;20395;-74
2022/03/04 00:47:28;;;;;;;0.40;0.30;;;2.10;99.90;;;;;;4973341;28;20507;-74
2022/03/04 00:49:54;;;;;;;0.40;0.27;;;2.20;99.90;;;;;;4974914;28;20424;-74
2022/03/04 00:52:20;;;;;;;2.50;0.90;;;2.20;99.90;;;;;;4973846;28;20399;-75
2022/03/04 00:54:45;;;;;;;1.00;1.00;;;2.20;99.90;;;;;;4974725;28;20419;-75
2022/03/04 00:57:11;;;;;;;0.40;0.20;;;2.10;99.90;;;;;;4972795;28;20454;-74
2022/03/04 00:59:37;;;;;;;2.28;1.40;;;2.00;99.90;;;;;;4974523;28;20739;-75
2022/03/04 01:02:03;;;;;;;0.50;0.50;;;2.00;99.90;;;;;;4974315;28;20396;-74
2022/03/04 01:04:28;;;;;;;0.40;0.20;;;1.90;99.90;;;;;;4973653;28;20460;-74
2022/03/04 01:06:54;;;;;;;0.60;0.60;;;1.90;99.90;;;;;;4974333;28;20447;-74
2022/03/04 01:09:20;;;;;;;0.57;0.57;;;1.70;99.90;;;;;;4973164;28;20499;-73
2022/03/04 01:11:45;;;;;;;0.40;0.30;;;1.80;99.90;;;;;;4985303;28;20414;-74
2022/03/04 01:14:11;;;;;;;1.30;0.60;;;1.80;99.90;;;;;;4994176;28;20383;-74
2022/03/04 01:16:37;;;;;;;0.70;0.70;;;1.80;99.90;;;;;;4992913;28;20383;-74
2022/03/04 01:19:03;;;;;;;0.50;0.50;;;1.70;99.90;;;;;;4993756;28;20391;-74
2022/03/04 01:21:29;;;;;;;0.60;0.60;;;1.70;99.90;;;;;;4992495;28;20402;-73
2022/03/04 01:23:54;;;;;;;0.50;0.50;;;1.60;99.90;;;;;;4993596;28;20448;-73
2022/03/04 01:26:20;;;;;;;0.40;0.25;;;1.60;99.90;;;;;;4993527;28;20859;-74
2022/03/04 01:28:46;;;;;;;0.47;0.47;;;1.60;99.90;;;;;;4992642;28;20371;-74
2022/03/04 01:31:12;;;;;;;0.40;0.20;;;1.60;99.90;;;;;;4975748;28;20401;-73
2022/03/04 01:33:39;;;;;;;0.40;0.20;;;1.60;99.90;;;;;;4975055;28;20399;-74
2022/03/04 01:36:05;;;;;;;0.40;0.20;;;1.50;99.90;;;;;;4993326;28;20394;-73
2022/03/04 01:38:31;;;;;;;0.57;0.57;;;1.50;99.90;;;;;;4975270;28;20835;-73
2022/03/04 01:40:57;;;;;;;0.40;0.20;;;1.50;99.90;;;;;;4975172;28;20495;-74
2022/03/04 01:43:23;;;;;;;0.40;0.20;;;1.30;99.90;;;;;;4975711;28;20391;-73
2022/03/04 01:45:49;;;;;;;0.50;0.20;;;1.40;99.90;;;;;;4992142;28;20872;-73
2022/03/04 01:48:16;;;;;;;0.60;0.50;;;1.40;99.90;;;;;;4975136;28;20391;-73
2022/03/04 01:50:41;;;;;;;0.40;0.30;;;1.40;99.90;;;;;;4992936;28;20493;-73
2022/03/04 01:53:07;;;;;;;1.00;1.00;;;1.40;99.90;;;;;;4993355;28;20391;-73
2022/03/04 01:55:33;;;;;;;0.68;0.68;;;1.40;99.90;;;;;;4992870;28;20803;-74
2022/03/04 01:57:59;;;;;;;0.40;0.20;;;1.50;99.90;;;;;;4992316;28;20485;-73
2022/03/04 02:00:24;;;;;;;0.40;0.30;;;1.50;99.90;;;;;;4992855;28;20390;-73
2022/03/04 02:02:50;;;;;;;1.10;1.10;;;1.40;99.90;;;;;;4975554;28;20453;-73
2022/03/04 02:05:17;;;;;;;0.40;0.20;;;1.30;99.90;;;;;;4974097;28;20403;-73
2022/03/04 02:07:43;;;;;;;0.40;0.30;;;1.30;99.90;;;;;;4975309;28;20449;-74
2022/03/04 02:10:10;;;;;;;0.40;0.40;;;1.10;99.90;;;;;;4992099;28;20418;-73
2022/03/04 02:12:36;;;;;;;0.40;0.30;;;1.20;99.90;;;;;;4992378;28;20448;-73
2022/03/04 02:15:04;;;;;;;0.40;0.35;;;1.30;99.90;;;;;;4991812;28;20481;-73
2022/03/04 02:17:31;;;;;;;0.40;0.20;;;1.20;99.90;;;;;;4975378;28;20882;-73
2022/03/04 02:19:57;;;;;;;0.60;0.60;;;1.30;99.90;;;;;;4992493;28;20489;-73
2022/03/04 02:22:24;;;;;;;0.40;0.20;;;1.30;99.90;;;;;;4991728;28;20440;-73
2022/03/04 02:24:49;;;;;;;0.40;0.20;;;1.30;99.90;;;;;;4992313;28;20743;-73
2022/03/04 02:27:16;;;;;;;0.40;0.20;;;1.40;99.90;;;;;;4974149;28;20505;-73
2022/03/04 02:29:41;;;;;;;0.40;0.20;;;1.50;99.90;;;;;;4992657;28;20415;-73
2022/03/04 02:32:08;;;;;;;0.40;0.20;;;1.50;99.90;;;;;;4992342;28;20389;-73
2022/03/04 02:34:33;;;;;;;0.40;0.30;;;1.60;99.90;;;;;;4991585;28;20378;-74
2022/03/04 02:36:59;;;;;;;1.00;0.90;;;1.60;99.90;;;;;;4992271;28;20399;-74
2022/03/04 02:39:25;;;;;;;0.40;0.30;;;1.50;99.90;;;;;;4990843;28;20481;-73
2022/03/04 02:41:51;;;;;;;0.40;0.20;;;1.50;99.90;;;;;;4991935;28;20399;-73
2022/03/04 02:44:17;;;;;;;0.40;0.40;;;1.50;99.90;;;;;;4992221;28;20415;-73
2022/03/04 02:46:43;;;;;;;3.40;1.10;;;1.40;99.90;;;;;;4991368;28;20383;-73
2022/03/04 02:49:10;;;;;;;0.50;0.47;;;1.40;99.90;;;;;;4991994;28;20419;-72
2022/03/04 02:51:36;;;;;;;0.40;0.40;;;1.30;99.90;;;;;;4973547;28;21023;-72
2022/03/04 02:54:03;;;;;;;0.40;0.40;;;1.30;99.90;;;;;;4991848;28;20397;-73
2022/03/04 02:56:29;;;;;;;0.40;0.40;;;1.30;99.90;;;;;;4991664;28;20843;-73
2022/03/04 02:58:55;;;;;;;3.50;1.50;;;1.30;99.90;;;;;;4973504;28;20429;-73
2022/03/04 03:01:20;;;;;;;0.40;0.30;;;1.20;99.90;;;;;;4974438;28;20397;-73
2022/03/04 03:03:46;;;;;;;0.40;0.20;;;1.10;99.90;;;;;;4990782;28;20743;-73
2022/03/04 03:06:11;;;;;;;0.40;0.40;;;1.00;99.90;;;;;;4991610;28;20386;-73
2022/03/04 03:08:37;;;;;;;0.60;0.60;;;1.00;99.90;;;;;;4974207;28;20469;-73
2022/03/04 03:11:03;;;;;;;0.40;0.30;;;1.00;99.90;;;;;;4990593;28;20463;-73
2022/03/04 03:13:29;;;;;;;1.30;1.20;;;0.90;99.90;;;;;;4991589;28;20383;-73
2022/03/04 03:15:54;;;;;;;1.33;1.10;;;0.90;99.90;;;;;;4990199;28;20401;-73
2022/03/04 03:18:20;;;;;;;0.40;0.30;;;0.90;99.90;;;;;;4991192;28;20434;-73
2022/03/04 03:20:46;;;;;;;0.40;0.30;;;0.90;99.90;;;;;;4991271;28;20410;-75
2022/03/04 03:23:12;;;;;;;0.40;0.20;;;0.70;99.90;;;;;;4973281;28;20387;-72
2022/03/04 03:25:38;;;;;;;1.10;0.80;;;0.70;99.90;;;;;;4991443;28;20755;-72
2022/03/04 03:28:04;;;;;;;0.40;0.30;;;0.70;99.90;;;;;;4990626;28;20390;-73
2022/03/04 03:30:30;;;;;;;0.40;0.28;;;0.80;99.90;;;;;;4974058;28;20413;-73
2022/03/04 03:32:56;;;;;;;0.40;0.20;;;0.70;99.90;;;;;;4991134;28;20401;-73
2022/03/04 03:35:22;;;;;;;0.40;0.20;;;0.70;99.90;;;;;;4990493;28;20581;-73
2022/03/04 03:37:48;;;;;;;1.20;0.80;;;0.80;99.90;;;;;;4991320;28;20529;-73
2022/03/04 03:40:14;;;;;;;0.50;0.50;;;0.70;99.90;;;;;;4990108;28;20391;-73
2022/03/04 03:42:40;;;;;;;1.23;0.77;;;0.70;99.90;;;;;;4991252;28;20386;-72
2022/03/04 03:45:07;;;;;;;0.40;0.30;;;0.70;99.90;;;;;;4973886;28;20391;-73
2022/03/04 03:47:33;;;;;;;0.40;0.20;;;0.70;99.90;;;;;;4973333;28;20398;-72
2022/03/04 03:49:59;;;;;;;0.40;0.20;;;0.60;99.90;;;;;;4973450;28;20426;-72
2022/03/04 03:52:25;;;;;;;0.60;0.60;;;0.50;99.90;;;;;;4990541;28;20382;-73
2022/03/04 03:54:51;;;;;;;0.40;0.30;;;0.60;99.90;;;;;;4990768;28;20468;-73
2022/03/04 03:57:16;;;;;;;1.05;0.95;;;0.60;99.90;;;;;;4990663;28;20399;-72
2022/03/04 03:59:42;;;;;;;0.40;0.35;;;0.60;99.90;;;;;;4972819;28;20402;-73
2022/03/04 04:02:08;;;;;;;0.40;0.30;;;0.50;99.90;;;;;;4991015;28;20486;-72
2022/03/04 04:04:34;;;;;;;0.40;0.20;;;0.50;99.90;;;;;;4990184;28;20470;-72
2022/03/04 04:07:09;;;;;;;0.40;0.20;;;0.40;99.90;;;;;;4990988;28;20390;-72
2022/03/04 04:09:35;;;;;;;0.40;0.20;;;0.50;99.90;;;;;;4989803;28;20521;-72
2022/03/04 04:12:01;;;;;;;0.40;0.20;;;0.40;99.90;;;;;;4991985;28;20751;-75
2022/03/04 04:14:30;;;;;;;0.40;0.20;;;0.40;99.90;;;;;;4977094;28;20398;-75
2022/03/04 04:16:56;;;;;;;0.40;0.30;;;0.40;99.90;;;;;;4976626;28;20422;-72
2022/03/04 04:19:23;;;;;;;0.40;0.20;;;0.50;99.90;;;;;;4994930;28;20906;-74
2022/03/04 04:21:50;;;;;;;0.40;0.20;;;0.50;99.90;;;;;;4994473;28;20434;-74
2022/03/04 04:24:17;;;;;;;0.40;0.20;;;0.50;99.90;;;;;;4994742;28;20453;-74
2022/03/04 04:26:43;;;;;;;0.40;0.20;;;0.50;99.90;;;;;;4994254;28;20382;-74
2022/03/04 04:29:09;;;;;;;0.40;0.20;;;0.40;99.90;;;;;;4976623;28;20391;-74
2022/03/04 04:31:35;;;;;;;0.40;0.30;;;0.40;99.90;;;;;;4977370;28;20440;-74
2022/03/04 04:34:02;;;;;;;0.40;0.30;;;0.40;99.90;;;;;;4994394;28;20418;-73
2022/03/04 04:36:28;;;;;;;0.40;0.40;;;0.40;99.90;;;;;;4977157;28;20390;-74
2022/03/04 04:38:54;;;;;;;0.40;0.40;;;0.40;99.90;;;;;;4993976;28;20452;-74
2022/03/04 04:41:19;;;;;;;0.50;0.50;;;0.30;99.90;;;;;;4994624;28;20470;-74
2022/03/04 04:43:45;;;;;;;0.40;0.30;;;0.30;99.90;;;;;;4977104;28;20509;-74
2022/03/04 04:46:12;;;;;;;1.40;0.50;;;0.20;99.90;;;;;;4993943;28;20464;-74
2022/03/04 04:48:37;;;;;;;0.80;0.80;;;0.20;99.90;;;;;;4977205;28;20585;-74
2022/03/04 04:51:04;;;;;;;0.40;0.20;;;0.20;99.90;;;;;;4993531;28;20443;-73
2022/03/04 04:53:31;;;;;;;0.70;0.70;;;0.10;99.90;;;;;;4994450;28;20745;-74
2022/03/04 04:55:56;;;;;;;0.40;0.30;;;0.30;99.90;;;;;;4994594;28;20389;-74
2022/03/04 04:58:22;;;;;;;1.00;1.00;;;0.20;99.90;;;;;;4976383;28;20383;-74
2022/03/04 05:00:53;;;;;;;1.00;0.90;;;0.20;99.90;;;;;;4994618;28;20379;-74
2022/03/04 05:03:20;;;;;;;0.63;0.47;;;0.20;99.90;;;;;;4994101;28;20403;-74
2022/03/04 05:05:45;;;;;;;0.40;0.40;;;0.10;99.90;;;;;;4994413;28;20507;-74
2022/03/04 05:08:11;;;;;;;0.40;0.23;;;0.00;99.90;;;;;;4976651;28;20425;-74
2022/03/04 05:10:38;;;;;;;0.40;0.20;;;0.00;99.90;;;;;;4993017;28;20505;-74
2022/03/04 05:13:03;;;;;;;0.57;0.57;;;0.00;99.90;;;;;;4994469;28;20784;-74
2022/03/04 05:15:29;;;;;;;0.40;0.30;;;0.00;99.90;;;;;;4975397;28;20394;-74
2022/03/04 05:17:55;;;;;;;0.40;0.20;;;0.00;99.90;;;;;;4993969;28;20761;-74
2022/03/04 05:20:20;;;;;;;0.40;0.20;;;0.00;99.90;;;;;;4994136;28;20494;-74
2022/03/04 05:22:46;;;;;;;0.40;0.20;;;-0.10;99.90;;;;;;4992599;28;20469;-74
2022/03/04 05:25:13;;;;;;;1.00;0.70;;;-0.10;99.90;;;;;;4993028;28;20506;-74
2022/03/04 05:27:39;;;;;;;0.40;0.35;;;-0.30;99.90;;;;;;4993029;28;20784;-73
2022/03/04 05:30:05;;;;;;;0.40;0.20;;;-0.30;99.90;;;;;;4993926;28;20448;-73
2022/03/04 05:32:31;;;;;;;0.40;0.20;;;-0.30;99.90;;;;;;4992887;28;20413;-74
2022/03/04 05:34:57;;;;;;;0.40;0.33;;;-0.30;99.90;;;;;;4992977;28;20859;-74
2022/03/04 05:37:22;;;;;;;0.60;0.60;;;-0.40;99.90;;;;;;4976448;28;20405;-74
2022/03/04 05:39:48;;;;;;;0.50;0.50;;;-0.40;99.90;;;;;;4992881;28;20401;-73
2022/03/04 05:42:14;;;;;;;0.40;0.20;;;-0.30;99.90;;;;;;4994014;28;20477;-74
2022/03/04 05:44:40;;;;;;;0.40;0.20;;;-0.40;99.90;;;;;;4976349;28;20455;-74
2022/03/04 05:47:05;;;;;;;0.40;0.40;;;-0.40;99.90;;;;;;4992404;28;20393;-73
2022/03/04 05:49:31;;;;;;;0.60;0.60;;;-0.40;99.90;;;;;;4975971;28;20418;-73
2022/03/04 05:51:57;;;;;;;0.40;0.20;;;-0.40;99.90;;;;;;4992299;28;20390;-74
2022/03/04 05:54:24;;;;;;;0.40;0.20;;;-0.30;99.90;;;;;;4976330;28;20379;-73
2022/03/04 05:56:50;;;;;;;0.40;0.20;;;-0.30;99.90;;;;;;4993304;28;20409;-74
2022/03/04 05:59:15;;;;;;;0.67;0.53;;;-0.30;99.90;;;;;;4992734;28;20386;-74
2022/03/04 06:01:41;;;;;;;0.40;0.20;;;-0.50;99.90;;;;;;4975840;28;20482;-74
2022/03/04 06:04:07;;;;;;;0.65;0.65;;;-0.50;99.90;;;;;;4992522;28;20398;-74
2022/03/04 06:06:33;;;;;;;0.40;0.20;;;-0.40;99.90;;;;;;4992882;28;20391;-73
2022/03/04 06:08:59;;;;;;;0.50;0.50;;;-0.40;99.90;;;;;;4993018;28;20383;-74
2022/03/04 06:11:25;;;;;;;0.40;0.20;;;-0.30;99.90;;;;;;4992323;28;20414;-73
2022/03/04 06:13:51;;;;;;;0.40;0.20;;;-0.20;99.90;;;;;;4992877;28;20386;-74
2022/03/04 06:16:16;;;;;;;0.40;0.20;;;-0.20;99.90;;;;;;4992086;28;20413;-74
2022/03/04 06:18:42;;;;;;;0.40;0.20;;;-0.30;99.90;;;;;;4975484;28;20414;-74
2022/03/04 06:21:08;;;;;;;0.40;0.20;;;-0.30;99.90;;;;;;4992167;28;20411;-74
2022/03/04 06:23:34;;;;;;;0.40;0.20;;;-0.20;99.90;;;;;;4993001;28;20952;-74
2022/03/04 06:26:00;;;;;;;0.40;0.20;;;-0.30;99.90;;;;;;4992548;28;20403;-74
2022/03/04 06:28:26;;;;;;;0.70;0.70;;;-0.40;99.90;;;;;;4974661;28;20485;-74
2022/03/04 06:30:53;;;;;;;0.40;0.20;;;-0.40;99.90;;;;;;4992527;28;20415;-73
2022/03/04 06:33:32;;;;;;;0.40;0.30;;;-0.50;99.90;;;;;;4992375;28;20387;-74
2022/03/04 06:36:15;;;;;;;0.40;0.38;;;-0.40;99.90;;;;;;4992336;28;20397;-74
2022/03/04 06:38:42;;;;;;;0.40;0.20;;;-0.30;99.90;;;;;;4974583;28;20648;-74
2022/03/04 06:41:13;;;;;;;0.40;0.30;;;-0.30;99.90;;;;;;4992609;28;20391;-74
2022/03/04 06:43:40;;;;;;;0.40;0.20;;;-0.30;99.90;;;;;;4991703;28;20721;-74
2022/03/04 06:46:07;;;;;;;0.40;0.20;;;-0.30;99.90;;;;;;4992485;28;20414;-74
2022/03/04 06:48:33;;;;;;;1.10;1.00;;;-0.30;99.90;;;;;;4991762;28;20711;-74
2022/03/04 06:50:59;;;;;;;0.40;0.20;;;-0.10;99.90;;;;;;4992543;28;20476;-74
2022/03/04 06:53:25;;;;;;;0.40;0.40;;;-0.10;99.90;;;;;;4992366;28;20390;-74
2022/03/04 06:55:52;;;;;;;0.40;0.20;;;-0.10;99.90;;;;;;4991510;28;20672;-74
2022/03/04 06:58:18;;;;;;;0.40;0.20;;;0.10;99.90;;;;;;4992036;28;20386;-73
2022/03/04 07:00:44;;;;;;;3.20;1.70;;;0.00;99.90;;;;;;4991353;28;20438;-73
2022/03/04 07:03:10;;;;;;;0.40;0.30;;;0.10;99.90;;;;;;4974540;28;20432;-73
2022/03/04 07:05:39;;;;;;;0.40;0.20;;;0.10;99.90;;;;;;4992008;28;20393;-73
2022/03/04 07:08:11;;;;;;;0.40;0.20;;;0.10;99.90;;;;;;4992377;28;20517;-73
2022/03/04 07:10:40;;;;;;;0.40;0.20;;;0.20;99.90;;;;;;4974155;28;20476;-73
2022/03/04 07:13:06;;;;;;;0.60;0.60;;;0.20;99.90;;;;;;4974340;28;20401;-73
2022/03/04 07:15:35;;;;;;;0.40;0.30;;;0.40;99.90;;;;;;4991740;28;20852;-73
2022/03/04 07:18:00;;;;;;;0.40;0.20;;;0.60;99.90;;;;;;4973651;28;20851;-72
2022/03/04 07:20:26;;;;;;;0.40;0.20;;;0.70;99.90;;;;;;4992018;28;20405;-72
2022/03/04 07:22:52;;;;;;;0.40;0.30;;;0.70;99.90;;;;;;4990322;28;20394;-72
2022/03/04 07:25:18;;;;;;;0.70;0.70;;;0.80;99.90;;;;;;4991581;28;20740;-72
2022/03/04 07:27:44;;;;;;;0.40;0.40;;;0.90;99.90;;;;;;4991934;28;20405;-73
2022/03/04 07:30:12;;;;;;;1.10;0.90;;;1.00;99.90;;;;;;4990960;28;20406;-73
2022/03/04 07:32:39;;;;;;;0.40;0.20;;;0.90;99.90;;;;;;4991388;28;20422;-74
2022/03/04 07:35:07;;;;;;;0.63;0.63;;;1.00;99.90;;;;;;4991007;28;20383;-73
2022/03/04 07:37:35;;;;;;;0.40;0.20;;;1.10;99.90;;;;;;4991609;28;20399;-73
2022/03/04 07:40:02;;;;;;;0.40;0.30;;;1.10;99.90;;;;;;4990883;28;20386;-72
2022/03/04 07:42:28;;;;;;;0.40;0.20;;;1.10;99.90;;;;;;4991064;28;20390;-73
2022/03/04 07:44:54;;;;;;;0.90;0.90;;;1.20;99.90;;;;;;4991316;28;20739;-73
2022/03/04 07:47:20;;;;;;;0.40;0.20;;;1.10;99.90;;;;;;4972508;28;20401;-73
2022/03/04 07:49:46;;;;;;;0.40;0.30;;;1.20;99.90;;;;;;4991032;28;20794;-73
2022/03/04 07:52:11;;;;;;;0.40;0.30;;;1.10;99.90;;;;;;4973276;28;20429;-73
2022/03/04 07:54:38;;;;;;;1.80;0.50;;;1.20;99.90;;;;;;4991365;28;20506;-73
2022/03/04 07:57:04;;;;;;;0.60;0.60;;;1.30;99.90;;;;;;4991422;28;20394;-73
2022/03/04 07:59:30;;;;;;;0.70;0.55;;;1.30;99.90;;;;;;4973155;28;20474;-73
2022/03/04 08:01:56;;;;;;;0.40;0.40;;;1.20;99.90;;;;;;4991180;28;20796;-73
2022/03/04 08:04:21;;;;;;;0.90;0.80;;;1.20;99.90;;;;;;4973000;28;20437;-73
2022/03/04 08:06:48;;;;;;;0.40;0.40;;;1.30;99.90;;;;;;4991168;28;20394;-73
2022/03/04 08:09:14;;;;;;;0.60;0.60;;;1.50;99.90;;;;;;4991045;28;20390;-73
2022/03/04 08:11:39;;;;;;;1.20;0.80;;;1.60;99.90;;;;;;4969380;28;20773;-73
2022/03/04 08:14:05;;;;;;;0.60;0.60;;;1.70;99.90;;;;;;4972006;28;20857;-73
2022/03/04 08:16:31;;;;;;;0.47;0.45;;;1.70;99.90;;;;;;4971019;28;20858;-73
2022/03/04 08:18:58;;;;;;;0.40;0.40;;;1.80;99.90;;;;;;4971805;28;20400;-73
2022/03/04 08:21:25;;;;;;;0.60;0.60;;;1.90;99.90;;;;;;4969406;28;20408;-73
2022/03/04 08:23:51;;;;;;;0.40;0.40;;;1.90;99.90;;;;;;4971724;28;20395;-72
2022/03/04 08:26:18;;;;;;;1.20;1.10;;;2.10;99.90;;;;;;4972007;28;20446;-72
2022/03/04 08:28:43;;;;;;;0.40;0.35;;;2.10;99.90;;;;;;4970860;28;20998;-73
2022/03/04 08:31:12;;;;;;;0.40;0.20;;;2.10;99.90;;;;;;4971651;28;20539;-73
2022/03/04 08:33:40;;;;;;;0.40;0.20;;;2.10;99.90;;;;;;4970718;28;20892;-73
2022/03/04 08:36:06;;;;;;;0.40;0.20;;;2.20;99.90;;;;;;4970310;28;20951;-73
2022/03/04 08:38:32;;;;;;;0.57;0.57;;;2.20;99.90;;;;;;4970787;28;20403;-73
2022/03/04 08:40:58;;;;;;;0.80;0.60;;;2.30;99.90;;;;;;4971309;28;20869;-73
2022/03/04 08:43:24;;;;;;;2.00;1.90;;;2.30;99.90;;;;;;4971658;28;20457;-73
2022/03/04 08:45:50;;;;;;;0.43;0.43;;;2.20;99.90;;;;;;4970681;28;20404;-73
2022/03/04 08:48:16;;;;;;;0.40;0.20;;;2.30;99.90;;;;;;4971673;28;20384;-73
2022/03/04 08:50:42;;;;;;;0.40;0.20;;;2.30;99.90;;;;;;4970973;28;20547;-73
2022/03/04 08:53:08;;;;;;;0.67;0.67;;;2.40;99.80;;;;;;4970150;28;20407;-73
2022/03/04 08:55:34;;;;;;;0.57;0.57;;;2.50;99.00;;;;;;4970199;28;20887;-73
2022/03/04 08:58:01;;;;;;;0.90;0.70;;;2.60;99.10;;;;;;4969870;28;20415;-73
2022/03/04 09:00:30;;;;;;;0.70;0.70;;;2.50;99.30;;;;;;4975110;28;20738;-73
2022/03/04 09:02:56;;;;;;;0.40;0.20;;;2.60;99.10;;;;;;4972920;28;20723;-73
2022/03/04 09:05:22;;;;;;;0.40;0.20;;;2.80;99.10;;;;;;4975055;28;20384;-73
2022/03/04 09:07:48;;;;;;;3.90;1.47;;;2.90;98.70;;;;;;4974612;28;20873;-73
2022/03/04 09:10:17;;;;;;;0.40;0.20;;;2.90;98.60;;;;;;4973585;28;20499;-74
2022/03/04 09:12:43;;;;;;;0.70;0.70;;;3.00;97.10;;;;;;4972430;28;20416;-73
2022/03/04 09:15:11;;;;;;;0.60;0.60;;;3.10;97.30;;;;;;4974050;28;20389;-73
2022/03/04 09:17:39;;;;;;;0.40;0.20;;;3.20;97.20;;;;;;4973524;28;20392;-73
2022/03/04 09:20:06;;;;;;;1.20;1.00;;;3.30;96.70;;;;;;4973989;28;20438;-73
2022/03/04 09:22:32;;;;;;;0.57;0.57;;;3.40;96.40;;;;;;4974480;28;20400;-74
2022/03/04 09:24:58;;;;;;;0.40;0.20;;;3.40;95.30;;;;;;4974293;28;20873;-73
2022/03/04 09:27:24;;;;;;;0.60;0.60;;;3.50;95.10;;;;;;4972968;28;20396;-73
2022/03/04 09:29:50;;;;;;;0.70;0.60;;;3.60;93.60;;;;;;5005625;28;20451;-74
2022/03/04 09:32:16;;;;;;;0.40;0.30;;;3.70;93.20;;;;;;4973819;28;20433;-74
2022/03/04 09:34:42;;;;;;;0.80;0.70;;;3.80;93.20;;;;;;4974371;28;20395;-73
2022/03/04 09:37:07;;;;;;;1.00;1.00;;;3.80;93.10;;;;;;4973586;28;20387;-73
2022/03/04 09:39:33;;;;;;;0.70;0.70;;;3.90;93.40;;;;;;4974669;28;20392;-73
2022/03/04 09:41:59;;;;;;;0.40;0.40;;;3.90;92.90;;;;;;4974627;28;20447;-73
2022/03/04 09:44:25;;;;;;;0.40;0.20;;;3.90;92.90;;;;;;4973479;28;20388;-73
2022/03/04 09:46:53;;;;;;;0.40;0.30;;;4.20;93.00;;;;;;4974343;28;20388;-73
2022/03/04 09:49:20;;;;;;;0.70;0.70;;;4.30;92.70;;;;;;4973132;28;20396;-73
2022/03/04 09:51:46;;;;;;;0.50;0.40;;;4.10;91.60;;;;;;4973518;28;20769;-73
2022/03/04 09:54:12;;;;;;;0.40;0.20;;;4.00;91.00;;;;;;4973941;28;20405;-72
2022/03/04 09:56:38;;;;;;;0.40;0.30;;;4.20;91.10;;;;;;4971636;28;20403;-73
2022/03/04 09:59:04;;;;;;;0.40;0.20;;;4.50;91.00;;;;;;4973422;28;20393;-73
2022/03/04 10:01:30;;;;;;;0.40;0.40;;;4.50;90.30;;;;;;4973288;28;20404;-73
2022/03/04 10:03:56;;;;;;;0.60;0.60;;;4.70;90.50;;;;;;4972589;28;20396;-73
2022/03/04 10:06:23;;;;;;;0.60;0.60;;;4.70;90.00;;;;;;4973252;28;20384;-73
2022/03/04 10:08:51;;;;;;;0.40;0.20;;;4.80;89.30;;;;;;4973446;28;20974;-73
2022/03/04 10:11:36;;;;;;;1.40;0.70;;;4.80;88.60;;;;;;4978363;28;20899;-73
2022/03/04 10:14:07;;;;;;;0.40;0.22;;;4.70;89.30;;;;;;4975762;28;20399;-73
2022/03/04 10:16:36;;;;;;;0.40;0.30;;;4.90;89.90;;;;;;4992318;28;20398;-73
2022/03/04 10:19:19;;;;;;;4.50;1.70;;;5.00;89.40;;;;;;4992759;28;20383;-73
2022/03/04 10:22:03;;;;;;;0.50;0.50;;;4.80;89.20;;;;;;4974550;28;20402;-73
2022/03/04 10:24:30;;;;;;;1.90;0.60;;;5.00;89.90;;;;;;4992772;28;20492;-73
2022/03/04 10:27:05;;;;;;;0.40;0.20;;;5.00;90.00;;;;;;4992515;28;20439;-73
2022/03/04 10:29:34;;;;;;;0.70;0.70;;;4.90;89.30;;;;;;4975355;28;20446;-73
2022/03/04 10:32:09;;;;;;;0.50;0.50;;;4.90;88.80;;;;;;4993156;28;20391;-73
2022/03/04 10:34:52;;;;;;;0.40;0.20;;;4.90;88.30;;;;;;4992987;28;20390;-73
2022/03/04 10:37:23;;;;;;;1.73;1.63;;;5.20;88.80;;;;;;4975327;28;20391;-73
2022/03/04 10:40:13;;;;;;;1.10;1.10;;;5.20;88.00;;;;;;4958444;28;20403;-73
2022/03/04 10:42:39;;;;;;;0.57;0.57;;;5.40;87.40;;;;;;4992719;28;20394;-74
2022/03/04 10:45:07;;;;;;;0.40;0.30;;;5.30;85.50;;;;;;4992073;28;20393;-73
2022/03/04 10:47:45;;;;;;;0.40;0.30;;;5.50;85.50;;;;;;4992005;28;20755;-73
2022/03/04 10:50:15;;;;;;;0.40;0.20;;;5.80;84.40;;;;;;4992162;28;20434;-73
2022/03/04 10:52:58;;;;;;;0.60;0.60;;;6.00;80.70;;;;;;4974964;28;20864;-73
2022/03/04 10:55:45;;;;;;;0.40;0.40;;;5.90;80.00;;;;;;4974920;28;20531;-73
2022/03/04 10:58:16;;;;;;;0.63;0.63;;;6.10;79.30;;;;;;4991186;28;20387;-73
2022/03/04 11:00:44;;;;;;;0.40;0.20;;;6.20;78.30;;;;;;4974957;28;20399;-73
2022/03/04 11:03:15;;;;;;;0.40;0.30;;;6.20;77.50;;;;;;4991301;28;20663;-73
2022/03/04 11:05:41;;;;;;;0.40;0.30;;;6.40;75.10;;;;;;4992006;28;20427;-73
2022/03/04 11:08:09;;;;;;;0.40;0.37;;;6.20;76.90;;;;;;4973790;28;20391;-73
2022/03/04 11:10:35;;;;;;;0.65;0.65;;;6.50;77.10;;;;;;4974889;28;20414;-73
2022/03/04 11:13:04;;;;;;;0.90;0.50;;;6.80;77.60;;;;;;4991060;28;20421;-73
2022/03/04 11:15:33;;;;;;;1.80;1.40;;;7.00;74.60;;;;;;4991287;28;20398;-73
2022/03/04 11:18:03;;;;;;;0.60;0.60;;;6.60;75.50;;;;;;4991964;28;20387;-73
2022/03/04 11:20:29;;;;;;;0.40;0.30;;;6.80;76.50;;;;;;4991975;28;20490;-74
2022/03/04 11:22:55;;;;;;;0.70;0.70;;;6.80;75.70;;;;;;4991008;28;20474;-74
2022/03/04 11:25:24;;;;;;;5.90;0.63;;;7.10;74.70;;;;;;4991671;28;20390;-75
2022/03/04 11:27:55;;;;;;;0.80;0.70;;;7.30;73.50;;;;;;4991976;28;20382;-75
2022/03/04 11:30:41;;;;;;;1.80;1.52;;;7.80;72.60;;;;;;4991175;28;20429;-76
2022/03/04 11:33:27;;;;;;;1.80;1.50;;;8.20;69.60;;;;;;4991695;28;20399;-75
2022/03/04 11:35:57;;;;;;;0.80;0.80;;;8.80;68.00;;;;;;4991749;28;20393;-73
2022/03/04 11:39:00;;;;;;;0.40;0.40;;;9.40;66.70;;;;;;4991144;28;20532;-74
2022/03/04 11:41:31;;;;;;;0.40;0.20;;;10.20;63.50;;;;;;4911861;29;20447;-74
2022/03/04 11:44:08;;;;;;;0.40;0.30;;;10.10;60.10;;;;;;4961064;28;20509;-73
2022/03/04 11:46:55;;;;;;;1.00;1.00;;;10.60;59.50;;;;;;4990921;28;20378;-75
2022/03/04 11:49:43;;;;;;;0.40;0.40;;;10.70;59.80;;;;;;4973368;28;20394;-72
2022/03/04 11:52:09;;;;;;;0.40;0.30;;;11.50;57.50;;;;;;4991662;28;20398;-72
2022/03/04 11:54:42;;;;;;;0.60;0.60;;;11.40;57.40;;;;;;4990535;28;20888;-73
2022/03/04 11:57:24;;;;;;;0.40;0.40;;;11.50;57.50;;;;;;4991311;28;20956;-74
2022/03/04 12:00:14;;;;;;;1.20;0.80;;;12.60;57.40;;;;;;4991257;28;20882;-73
2022/03/04 12:02:54;;;;;;;0.70;0.70;;;11.30;54.10;;;;;;4973219;28;20403;-73
2022/03/04 12:05:25;;;;;;;0.40;0.20;;;11.90;55.80;;;;;;4991156;28;20445;-72
2022/03/04 12:07:56;;;;;;;0.40;0.32;;;11.40;55.40;;;;;;4990096;28;20398;-73
2022/03/04 12:10:24;;;;;;;0.40;0.20;;;11.90;54.10;;;;;;4991256;28;20410;-72
2022/03/04 12:13:01;;;;;;;1.38;1.27;;;12.50;52.10;;;;;;4990445;28;20477;-72
2022/03/04 12:15:31;;;;;;;0.80;0.60;;;12.60;51.90;;;;;;4973793;28;20812;-72
2022/03/04 12:18:02;;;;;;;1.50;1.40;;;12.20;52.20;;;;;;4990750;28;20390;-72
2022/03/04 12:20:40;;;;;;;1.20;1.10;;;13.00;51.50;;;;;;4991193;28;20413;-72
2022/03/04 12:23:10;;;;;;;0.40;0.40;;;12.60;52.10;;;;;;4991369;28;20473;-74
2022/03/04 12:25:54;;;;;;;0.40;0.30;;;12.50;51.60;;;;;;4991365;28;20426;-73
2022/03/04 12:28:39;;;;;;;0.40;0.20;;;12.60;51.00;;;;;;4990860;28;20474;-73
2022/03/04 12:31:05;;;;;;;0.60;0.60;;;13.30;51.10;;;;;;4989993;28;20641;-73
2022/03/04 12:33:39;;;;;;;0.40;0.40;;;13.10;49.50;;;;;;4992925;28;20901;-73
2022/03/04 12:36:11;;;;;;;0.40;0.20;;;13.00;49.20;;;;;;4994207;28;20383;-72
2022/03/04 12:38:44;;;;;;;0.40;0.40;;;13.00;47.60;;;;;;4977439;28;20393;-73
2022/03/04 12:41:16;;;;;;;0.80;0.80;;;12.30;48.90;;;;;;4994033;28;20391;-73
2022/03/04 12:43:44;;;;;;;0.50;0.50;;;13.20;50.60;;;;;;4994711;28;20394;-73
2022/03/04 12:46:10;;;;;;;0.40;0.40;;;13.50;47.50;;;;;;4994133;28;20383;-73
2022/03/04 12:48:36;;;;;;;1.40;1.30;;;13.80;46.70;;;;;;4977575;28;20394;-73
2022/03/04 12:51:36;;;;;;;0.40;0.40;;;13.20;47.90;;;;;;4975998;28;20462;-75
2022/03/04 12:54:11;;;;;;;0.50;0.50;;;12.50;47.70;;;;;;4993780;28;20895;-74
2022/03/04 12:56:37;;;;;;;0.40;0.30;;;12.90;48.80;;;;;;4977071;28;20458;-74
2022/03/04 12:59:05;;;;;;;0.50;0.50;;;12.90;48.90;;;;;;4976404;28;20391;-74